Skip Navigation Links Skip Navigation Links

Current Weather

Odiham, United Kingdom

For information only: do not use for flight planning or navigation.
Latest weather
Observation time Tuesday, September 28, 2021 10:50 AM BST
Local time Tuesday, September 28, 2021 11:27 AM BST
Flight conditions Visual Meteorological Conditions
Winds
Wind direction South (180°)
Wind speed 15 mph
Visibility 6.2 mi.
Present weather light rain showers, light rain showers
Sky condition
Ceiling 6,000 ft. broken clouds
Cloud layer few clouds 2,000 ft.
Cloud layer few clouds 4,500 ft.
Cloud layer broken clouds 6,000 ft.
Temperature 59°F
Dewpoint 54°F
Altimeter 30.03 in.Hg
Derived measurements
Relative humidity 82%
Density altitude 191 ft.
Remarks
Temporarily.
METAR EGVO 280950Z 18013KT 9999 -SHRA FEW020 FEW045TCU BKN060 15/12 Q1017 TEMPO 6000 -SHRA SCT020 RMK BLU TEMPO WHT

Settings

Location code

InnerDrive.Weather 4.0.6770.0 Release CLR 4.0.30319.42000
Copyright ©2018 Inner Drive Technology. All rights reserved. Portions Copyright ©1986-2018 David Braverman.

Find weather

Site navigation


Skip Navigation Links

Place info

Page info

PayPal - The safer, easier way to pay online!

Return home.

Copyright ©2021 Inner Drive Technology. Purveyors of fine, hand-crafted computer software. Page printed 2021-09-28T10:27:15 UTC.